Time;durP1;ratioP1;P1;durP2;ratioP2;P2;SDS_P1;SDS_P2;PMS_P1;PMS_P2;Temp;Humidity;BMP_temperature;BMP_pressure;BME280_temperature;BME280_humidity;BME280_pressure;Samples;Min_cycle;Max_cycle;Signal;HPM_P1;HPM_P2
2021/06/14 00:02:00;;;;;;;;;0.00;0.00;;;;;19.75;43.05;99057.94;4961327;28;103300;-82
2021/06/14 00:04:31;;;;;;;;;0.00;0.00;;;;;19.85;42.95;99074.59;4948239;28;101937;-81
2021/06/14 00:06:59;;;;;;;;;1.00;1.00;;;;;19.79;42.84;99063.75;4966918;28;103399;-81
2021/06/14 00:09:27;;;;;;;;;1.00;1.00;;;;;19.77;42.87;99054.97;4971149;28;103004;-82
2021/06/14 00:11:54;;;;;;;;;1.00;1.00;;;;;19.74;42.76;99053.53;4963762;28;105368;-82
2021/06/14 00:14:35;;;;;;;;;2.00;1.00;;;;;19.75;43.06;99068.06;4966468;28;102601;-82
2021/06/14 00:17:04;;;;;;;;;0.00;0.00;;;;;19.76;42.89;99058.78;4968632;28;102329;-81
2021/06/14 00:19:48;;;;;;;;;1.00;1.00;;;;;19.80;43.08;99068.16;4964103;28;102308;-82
2021/06/14 00:22:28;;;;;;;;;0.00;0.00;;;;;19.79;42.90;99064.59;4895218;28;109923;-81
2021/06/14 00:25:17;;;;;;;;;1.00;1.00;;;;;19.72;42.99;99052.13;4963826;28;103533;-82
2021/06/14 00:27:50;;;;;;;;;0.00;0.00;;;;;19.78;42.90;99067.56;4967804;28;101767;-81
2021/06/14 00:30:45;;;;;;;;;0.00;0.00;;;;;19.75;42.93;99068.06;4922409;27;102093;-83
2021/06/14 00:33:17;;;;;;;;;1.00;1.00;;;;;19.70;42.73;99054.28;4972095;28;103687;-83
2021/06/14 00:36:05;;;;;;;;;0.00;0.00;;;;;19.72;42.91;99063.94;4905296;28;104185;-82
2021/06/14 00:38:51;;;;;;;;;0.00;0.00;;;;;19.71;42.76;99059.53;4972354;27;101898;-81
2021/06/14 00:41:36;;;;;;;;;1.00;1.00;;;;;19.65;42.79;99045.94;4923848;28;102075;-81
2021/06/14 00:44:10;;;;;;;;;0.00;0.00;;;;;19.66;42.83;99053.94;4976807;28;103126;-81
2021/06/14 00:46:45;;;;;;;;;1.00;1.00;;;;;19.55;42.69;99049.34;4983884;28;102152;-82
2021/06/14 00:49:18;;;;;;;;;1.00;1.00;;;;;19.58;42.80;99059.84;4966895;28;102797;-82
2021/06/14 00:51:58;;;;;;;;;2.00;1.00;;;;;19.54;42.33;99048.50;4911542;28;103373;-81
2021/06/14 00:54:46;;;;;;;;;1.00;1.00;;;;;19.63;42.89;99067.34;4983123;28;102388;-82
2021/06/14 00:57:20;;;;;;;;;1.00;1.00;;;;;19.62;42.73;99068.41;4980916;27;102350;-82
2021/06/14 00:59:56;;;;;;;;;0.00;0.00;;;;;19.53;42.57;99055.09;4979800;27;102668;-80
2021/06/14 01:02:30;;;;;;;;;2.00;1.00;;;;;19.57;42.59;99060.91;4968222;28;102073;-82
2021/06/14 01:05:12;;;;;;;;;0.00;0.00;;;;;19.57;42.66;99067.25;4973105;27;104599;-82
2021/06/14 01:07:55;;;;;;;;;0.00;0.00;;;;;19.55;42.69;99060.31;4933210;28;103228;-82
2021/06/14 01:10:28;;;;;;;;;0.00;0.00;;;;;19.54;42.24;99061.41;4970786;27;102222;-81
2021/06/14 01:13:17;;;;;;;;;2.00;1.00;;;;;19.49;42.56;99053.09;4968448;28;102146;-81
2021/06/14 01:16:10;;;;;;;;;0.67;0.67;;;;;19.51;42.63;99056.41;4940475;28;106411;-82
2021/06/14 01:18:58;;;;;;;;;0.00;0.00;;;;;19.52;42.47;99069.06;4873195;28;105495;-81
2021/06/14 01:22:09;;;;;;;;;0.00;0.00;;;;;19.43;42.60;99059.53;4868121;27;105826;-82
2021/06/14 01:25:19;;;;;;;;;0.00;0.00;;;;;19.45;42.39;99069.19;4864517;28;102326;-82
2021/06/14 01:28:03;;;;;;;;;1.00;1.00;;;;;19.44;42.22;99072.22;4912958;27;108309;-80
2021/06/14 01:30:41;;;;;;;;;1.00;0.00;;;;;19.36;42.42;99059.66;4962737;28;103016;-83
2021/06/14 01:33:28;;;;;;;;;0.00;0.00;;;;;19.40;42.70;99065.53;4976971;28;104394;-82
2021/06/14 01:36:24;;;;;;;;;0.33;0.33;;;;;19.37;42.61;99066.00;4902004;28;102393;-82
2021/06/14 01:38:58;;;;;;;;;1.00;1.00;;;;;19.27;42.41;99047.47;4967916;28;108169;-82
2021/06/14 01:41:39;;;;;;;;;1.00;1.00;;;;;19.38;42.17;99065.75;4921592;28;102607;-82
2021/06/14 01:44:15;;;;;;;;;1.00;0.00;;;;;19.27;42.46;99052.13;4969675;28;102629;-82
2021/06/14 01:47:01;;;;;;;;;0.00;0.00;;;;;19.32;42.29;99066.72;4952858;28;104041;-82
2021/06/14 01:49:47;;;;;;;;;0.67;0.67;;;;;19.28;42.27;99060.06;4971886;28;102880;-82
2021/06/14 01:52:32;;;;;;;;;0.00;0.00;;;;;19.34;42.63;99070.06;4973238;27;102642;-82
2021/06/14 01:55:11;;;;;;;;;1.00;1.00;;;;;19.33;42.26;99071.16;4976483;28;103335;-83
2021/06/14 01:57:53;;;;;;;;;1.00;1.00;;;;;19.29;42.06;99067.22;4961057;28;102250;-81
2021/06/14 02:00:43;;;;;;;;;0.00;0.00;;;;;19.30;42.25;99076.28;4896651;28;106586;-81
2021/06/14 02:03:19;;;;;;;;;0.33;0.33;;;;;19.17;42.52;99058.25;4975667;28;102484;-81
2021/06/14 02:06:00;;;;;;;;;1.00;0.33;;;;;19.26;42.47;99078.69;4979760;28;103655;-81
2021/06/14 02:08:45;;;;;;;;;1.00;1.00;;;;;19.26;42.37;99077.88;4909146;28;102879;-82
2021/06/14 02:11:31;;;;;;;;;0.00;0.00;;;;;19.18;42.33;99068.13;4963031;28;102617;-81
2021/06/14 02:14:05;;;;;;;;;0.67;0.67;;;;;19.14;42.43;99061.44;4922891;27;102205;-80
2021/06/14 02:16:43;;;;;;;;;1.00;0.67;;;;;19.22;42.31;99087.66;4965600;28;102531;-79
2021/06/14 02:19:26;;;;;;;;;1.00;1.00;;;;;19.13;42.38;99071.63;4971161;28;102048;-81
2021/06/14 02:22:01;;;;;;;;;0.00;0.00;;;;;19.11;42.10;99067.44;4976070;28;106556;-82
2021/06/14 02:24:45;;;;;;;;;1.00;1.00;;;;;19.17;42.22;99083.75;4975673;27;102713;-81
2021/06/14 02:27:26;;;;;;;;;1.00;0.00;;;;;19.17;41.99;99082.91;4968885;28;103602;-81
2021/06/14 02:30:16;;;;;;;;;2.00;1.00;;;;;19.18;42.10;99084.59;4924469;28;101766;-82
2021/06/14 02:32:55;;;;;;;;;0.00;0.00;;;;;19.17;42.31;99075.53;4978186;28;103114;-81
2021/06/14 02:35:32;;;;;;;;;1.00;1.00;;;;;19.13;42.05;99068.88;4955791;28;102284;-81
2021/06/14 02:38:10;;;;;;;;;1.00;1.00;;;;;19.05;42.26;99058.28;4973374;28;102546;-80
2021/06/14 02:40:45;;;;;;;;;0.00;0.00;;;;;19.04;42.11;99055.78;4976429;28;102481;-81
2021/06/14 02:43:17;;;;;;;;;1.67;0.00;;;;;19.04;42.12;99053.06;4962368;28;103100;-81
2021/06/14 02:45:54;;;;;;;;;1.00;1.00;;;;;19.00;42.28;99049.13;4984860;28;102224;-81
2021/06/14 02:48:34;;;;;;;;;1.00;1.00;;;;;19.12;42.20;99069.94;4896020;28;103011;-81
2021/06/14 02:51:11;;;;;;;;;1.00;1.00;;;;;18.99;41.93;99051.06;4985661;27;102568;-82
2021/06/14 02:54:07;;;;;;;;;0.33;0.33;;;;;19.06;41.92;99065.44;4969200;28;106180;-82
2021/06/14 02:56:41;;;;;;;;;0.67;0.00;;;;;19.02;41.68;99063.41;4907099;28;109447;-80
2021/06/14 02:59:30;;;;;;;;;0.00;0.00;;;;;19.04;42.03;99072.25;4964172;28;102917;-81
2021/06/14 03:02:13;;;;;;;;;1.33;0.00;;;;;19.01;41.70;99067.22;4887847;28;102014;-82
2021/06/14 03:04:52;;;;;;;;;1.00;1.00;;;;;18.96;42.13;99065.22;4986246;27;102132;-81
2021/06/14 03:07:33;;;;;;;;;0.67;0.67;;;;;19.00;41.84;99082.03;4948631;28;104116;-82
2021/06/14 03:10:17;;;;;;;;;0.00;0.00;;;;;18.99;41.78;99080.34;4947509;28;103790;-81
2021/06/14 03:12:44;;;;;;;;;2.00;2.00;;;;;18.98;41.61;99079.53;4963242;28;102601;-81
2021/06/14 03:15:12;;;;;;;;;1.00;1.00;;;;;18.91;41.86;99067.03;4957552;28;104700;-81
2021/06/14 03:17:40;;;;;;;;;2.00;0.00;;;;;18.97;41.69;99087.97;4982586;28;102663;-82
2021/06/14 03:20:22;;;;;;;;;1.67;1.67;;;;;18.94;41.86;99080.25;4964749;28;103094;-81
2021/06/14 03:22:53;;;;;;;;;1.67;1.00;;;;;18.91;41.85;99067.03;4969382;28;101918;-80
2021/06/14 03:25:34;;;;;;;;;0.33;0.33;;;;;18.92;41.93;99079.66;4891118;28;109420;-81
2021/06/14 03:28:03;;;;;;;;;0.33;0.33;;;;;18.84;41.75;99058.94;4964617;28;102443;-81
2021/06/14 03:30:30;;;;;;;;;0.00;0.00;;;;;18.93;41.36;99082.16;4967476;28;103423;-81
2021/06/14 03:33:02;;;;;;;;;1.00;1.00;;;;;18.87;41.50;99071.31;4946327;28;102271;-81
2021/06/14 03:35:30;;;;;;;;;1.00;1.00;;;;;18.91;41.40;99083.50;4963020;28;102889;-81
2021/06/14 03:37:58;;;;;;;;;1.00;1.00;;;;;18.92;41.56;99087.88;4971659;28;103391;-81
2021/06/14 03:40:33;;;;;;;;;1.00;1.00;;;;;18.90;41.26;99096.34;4908895;28;104257;-81
2021/06/14 03:43:03;;;;;;;;;0.00;0.00;;;;;18.85;41.55;99084.44;4955983;28;103041;-81
2021/06/14 03:45:45;;;;;;;;;0.33;0.00;;;;;18.84;41.43;99083.63;4972683;27;102423;-81
2021/06/14 03:48:15;;;;;;;;;0.67;0.67;;;;;18.86;41.53;99086.13;4959967;28;103922;-81
2021/06/14 03:50:42;;;;;;;;;2.00;2.00;;;;;18.78;41.37;99078.28;4970540;28;101834;-81
2021/06/14 03:53:14;;;;;;;;;1.00;1.00;;;;;18.86;41.67;99097.09;4969479;28;102526;-81
2021/06/14 03:55:54;;;;;;;;;1.33;1.00;;;;;18.76;41.38;99074.94;4967786;28;107702;-81
2021/06/14 03:58:26;;;;;;;;;1.00;1.00;;;;;18.75;41.85;99079.59;4971657;28;103090;-81
2021/06/14 04:00:59;;;;;;;;;0.33;0.00;;;;;18.83;41.43;99087.41;4960742;28;103378;-81
2021/06/14 04:03:28;;;;;;;;;1.00;0.67;;;;;18.81;41.71;99092.31;4969666;28;102283;-81
2021/06/14 04:05:56;;;;;;;;;2.00;2.00;;;;;18.81;41.28;99088.75;4978443;28;109209;-81
2021/06/14 04:08:24;;;;;;;;;0.00;0.00;;;;;18.81;41.50;99094.22;4971672;28;102280;-81
2021/06/14 04:10:51;;;;;;;;;1.00;1.00;;;;;18.70;41.71;99076.75;4969125;28;101724;-82
2021/06/14 04:13:18;;;;;;;;;1.00;1.00;;;;;18.79;41.79;99085.41;4981323;28;102584;-82
2021/06/14 04:15:45;;;;;;;;;1.00;1.00;;;;;18.77;41.25;99084.84;4972272;28;103645;-81
2021/06/14 04:18:14;;;;;;;;;1.00;1.00;;;;;18.73;41.91;99084.50;4976151;28;102347;-81
2021/06/14 04:20:44;;;;;;;;;1.00;1.00;;;;;18.79;41.54;99094.47;4984814;27;101893;-81
2021/06/14 04:23:15;;;;;;;;;1.00;1.00;;;;;18.75;41.69;99092.44;4979772;28;102386;-81
2021/06/14 04:25:42;;;;;;;;;1.33;1.00;;;;;18.78;41.74;99101.00;4992181;27;103099;-81
2021/06/14 04:28:09;;;;;;;;;2.00;1.00;;;;;18.70;41.68;99079.47;4978697;27;102702;-81
2021/06/14 04:30:40;;;;;;;;;0.67;0.67;;;;;18.73;42.12;99094.63;4976054;28;101779;-81
2021/06/14 04:33:07;;;;;;;;;2.00;1.00;;;;;18.65;41.90;99080.19;4961076;28;103232;-81
2021/06/14 04:35:36;;;;;;;;;1.00;1.00;;;;;18.73;41.45;99093.53;4975318;28;103433;-81
2021/06/14 04:38:17;;;;;;;;;1.00;1.00;;;;;18.64;41.65;99075.78;4964801;28;103224;-81
2021/06/14 04:40:45;;;;;;;;;1.00;1.00;;;;;18.69;41.96;99078.63;4973742;28;102117;-81
2021/06/14 04:43:13;;;;;;;;;0.00;0.00;;;;;18.73;41.71;99083.66;4967152;28;102088;-81
2021/06/14 04:45:40;;;;;;;;;2.00;1.67;;;;;18.68;42.35;99079.75;4968551;27;103194;-80
2021/06/14 04:48:07;;;;;;;;;1.00;1.00;;;;;18.64;41.94;99059.34;4980928;27;101975;-80
2021/06/14 04:50:34;;;;;;;;;2.00;2.00;;;;;18.68;41.82;99071.53;4969814;28;102210;-80
2021/06/14 04:53:02;;;;;;;;;0.67;0.67;;;;;18.73;42.39;99078.19;4971611;27;102060;-81
2021/06/14 04:55:29;;;;;;;;;1.00;1.00;;;;;18.69;42.08;99077.81;4983195;27;103432;-83
2021/06/14 04:57:56;;;;;;;;;1.00;0.00;;;;;18.73;42.33;99080.91;4968985;28;101952;-81
2021/06/14 05:00:24;;;;;;;;;1.00;1.00;;;;;18.73;42.35;99093.53;4977228;28;102426;-81
2021/06/14 05:02:52;;;;;;;;;1.00;1.00;;;;;18.73;42.20;99086.41;4986083;27;102117;-81
2021/06/14 05:05:19;;;;;;;;;1.00;1.00;;;;;18.65;42.28;99071.16;4974820;28;104496;-80
2021/06/14 05:07:46;;;;;;;;;2.67;2.00;;;;;18.66;42.19;99087.34;4976256;27;102196;-82
2021/06/14 05:10:14;;;;;;;;;1.00;1.00;;;;;18.75;42.62;99104.25;4980306;28;102152;-81
2021/06/14 05:12:41;;;;;;;;;0.00;0.00;;;;;18.70;42.64;99101.38;4966276;28;103506;-80
2021/06/14 05:15:09;;;;;;;;;1.00;0.33;;;;;18.71;42.77;99101.16;4970109;28;104273;-79
2021/06/14 05:17:36;;;;;;;;;1.00;1.00;;;;;18.71;42.92;99103.06;4976763;28;101811;-80
2021/06/14 05:20:04;;;;;;;;;1.67;1.00;;;;;18.75;42.17;99106.16;4966762;28;101988;-81
2021/06/14 05:22:31;;;;;;;;;1.00;1.00;;;;;18.69;42.67;99091.50;4969929;28;102516;-81
2021/06/14 05:24:59;;;;;;;;;1.00;1.00;;;;;18.66;42.64;99087.34;4979762;28;103158;-80
2021/06/14 05:27:26;;;;;;;;;3.00;1.00;;;;;18.77;42.52;99102.09;4984568;28;102413;-81
2021/06/14 05:29:56;;;;;;;;;1.00;1.00;;;;;18.68;42.64;99092.59;4980349;27;102322;-81
2021/06/14 05:32:23;;;;;;;;;1.00;1.00;;;;;18.76;43.06;99113.31;4972165;28;102325;-82
2021/06/14 05:35:01;;;;;;;;;1.00;1.00;;;;;18.66;42.58;99089.25;4975388;27;108898;-81
2021/06/14 05:37:28;;;;;;;;;0.33;0.33;;;;;18.78;43.01;99117.44;4979174;28;101216;-79
2021/06/14 05:39:57;;;;;;;;;0.00;0.00;;;;;18.79;42.88;99107.31;4972203;28;102501;-80
2021/06/14 05:42:26;;;;;;;;;0.33;0.33;;;;;18.76;42.97;99119.63;4988612;27;102058;-81
2021/06/14 05:44:55;;;;;;;;;2.00;2.00;;;;;18.77;42.85;99109.50;4993126;27;105993;-78
2021/06/14 05:47:25;;;;;;;;;1.67;1.00;;;;;18.80;42.79;99111.75;4964096;28;102134;-80
2021/06/14 05:49:54;;;;;;;;;1.00;1.00;;;;;18.80;43.32;99109.00;4955900;28;103606;-81
2021/06/14 05:52:23;;;;;;;;;1.00;1.00;;;;;18.80;43.22;99098.03;4979315;28;102183;-81
2021/06/14 05:54:53;;;;;;;;;1.00;1.00;;;;;18.72;43.37;99088.31;4973297;28;104952;-80
2021/06/14 05:57:20;;;;;;;;;0.33;0.33;;;;;18.80;43.14;99096.13;4983747;27;102475;-81
2021/06/14 05:59:47;;;;;;;;;1.00;0.67;;;;;18.82;43.24;99104.13;4972143;28;102342;-81
2021/06/14 06:02:20;;;;;;;;;1.00;1.00;;;;;18.77;43.10;99082.94;4976881;28;103837;-81
2021/06/14 06:04:47;;;;;;;;;4.00;2.00;;;;;18.81;42.94;99095.06;4987123;27;103342;-80
2021/06/14 06:07:16;;;;;;;;;1.33;1.00;;;;;18.82;42.95;99095.91;4984737;28;103919;-81
2021/06/14 06:09:43;;;;;;;;;1.33;1.33;;;;;18.78;43.41;99083.78;4974548;28;103244;-80
2021/06/14 06:12:11;;;;;;;;;1.00;1.00;;;;;18.73;43.27;99080.91;4977106;28;103898;-80
2021/06/14 06:14:46;;;;;;;;;1.00;1.00;;;;;18.76;43.87;99088.66;4956324;28;103088;-80
2021/06/14 06:17:13;;;;;;;;;1.00;1.00;;;;;18.81;43.30;99092.31;4965357;28;102232;-82
2021/06/14 06:19:42;;;;;;;;;1.00;1.00;;;;;18.83;43.78;99092.06;4958617;28;102464;-81
2021/06/14 06:22:09;;;;;;;;;1.00;0.33;;;;;18.80;43.60;99084.34;4968804;28;102396;-80
2021/06/14 06:24:37;;;;;;;;;1.00;1.00;;;;;18.79;43.82;99091.72;4965524;28;103084;-81
2021/06/14 06:27:05;;;;;;;;;1.00;1.00;;;;;18.75;44.18;99078.75;4977930;28;102452;-81
2021/06/14 06:29:34;;;;;;;;;0.67;0.67;;;;;18.76;44.22;99086.75;4972748;28;102079;-81
2021/06/14 06:32:01;;;;;;;;;1.00;1.00;;;;;18.80;44.08;99090.66;4973414;28;102131;-80
2021/06/14 06:34:43;;;;;;;;;1.00;1.00;;;;;18.75;43.89;99079.59;4918814;28;108360;-80
2021/06/14 06:37:11;;;;;;;;;2.00;1.00;;;;;18.77;44.42;99073.88;4949603;28;102201;-81
2021/06/14 06:39:39;;;;;;;;;1.00;1.00;;;;;18.83;44.12;99086.59;4966550;27;102683;-81
2021/06/14 06:42:07;;;;;;;;;1.00;1.00;;;;;18.83;44.57;99081.09;4973051;28;102756;-80
2021/06/14 06:44:36;;;;;;;;;2.00;1.33;;;;;18.82;44.10;99077.56;4963327;28;103092;-81
2021/06/14 06:47:04;;;;;;;;;1.33;1.33;;;;;18.83;44.54;99075.63;4971686;27;102240;-81
2021/06/14 06:49:32;;;;;;;;;0.67;0.67;;;;;18.78;44.58;99064.59;4978222;27;102532;-82
2021/06/14 06:51:59;;;;;;;;;0.00;0.00;;;;;18.86;44.59;99077.91;4979388;27;103546;-81
2021/06/14 06:54:28;;;;;;;;;1.00;1.00;;;;;18.78;44.33;99061.84;4967273;28;108730;-81
2021/06/14 06:56:55;;;;;;;;;2.00;1.00;;;;;18.85;44.83;99078.97;4969245;28;101924;-81
2021/06/14 06:59:23;;;;;;;;;1.00;1.00;;;;;18.81;44.81;99055.88;4970388;28;102033;-81
2021/06/14 07:01:50;;;;;;;;;1.00;1.00;;;;;18.86;44.43;99070.50;4956481;28;102087;-81
2021/06/14 07:04:19;;;;;;;;;0.00;0.00;;;;;18.86;44.58;99061.47;4972352;28;103552;-80
2021/06/14 07:06:48;;;;;;;;;1.00;1.00;;;;;18.89;45.01;99069.19;4974828;28;102561;-81
2021/06/14 07:09:22;;;;;;;;;0.00;0.00;;;;;18.91;44.46;99072.53;4944649;28;102178;-81
2021/06/14 07:11:54;;;;;;;;;1.00;1.00;;;;;18.87;44.96;99061.19;4975176;28;102359;-80
2021/06/14 07:14:22;;;;;;;;;0.00;0.00;;;;;18.88;44.50;99056.56;4972573;28;103224;-80
2021/06/14 07:17:01;;;;;;;;;1.00;1.00;;;;;18.85;44.95;99046.94;4961543;28;103269;-81
2021/06/14 07:19:35;;;;;;;;;1.00;1.00;;;;;18.96;44.49;99067.97;4986083;28;101922;-80
2021/06/14 07:22:03;;;;;;;;;1.33;0.33;;;;;18.99;45.11;99062.00;4980997;28;111052;-80
2021/06/14 07:24:31;;;;;;;;;2.00;1.33;;;;;19.00;44.69;99060.09;4967603;28;109123;-80
2021/06/14 07:27:00;;;;;;;;;1.00;1.00;;;;;18.99;44.70;99059.28;4978055;28;102407;-81
2021/06/14 07:29:28;;;;;;;;;0.00;0.00;;;;;19.01;44.77;99054.34;4984393;28;102478;-81
2021/06/14 07:31:58;;;;;;;;;0.00;0.00;;;;;19.09;44.69;99053.16;4961024;28;102164;-81
2021/06/14 07:34:29;;;;;;;;;2.00;1.00;;;;;19.09;44.85;99070.41;4984317;28;108253;-81
2021/06/14 07:36:57;;;;;;;;;1.00;1.00;;;;;19.08;44.87;99059.72;4967026;28;102579;-80
2021/06/14 07:39:25;;;;;;;;;2.00;1.00;;;;;19.15;45.17;99068.59;4971944;28;102558;-81
2021/06/14 07:41:53;;;;;;;;;0.00;0.00;;;;;19.09;45.37;99050.41;4984615;28;102170;-81
2021/06/14 07:44:20;;;;;;;;;0.33;0.33;;;;;19.13;45.12;99063.38;4964276;28;103396;-81
2021/06/14 07:46:52;;;;;;;;;2.00;1.00;;;;;19.16;45.37;99059.31;4974458;28;102043;-81
2021/06/14 07:49:20;;;;;;;;;1.00;1.00;;;;;19.21;45.17;99073.13;4974515;28;102172;-81
2021/06/14 07:51:49;;;;;;;;;1.00;1.00;;;;;19.22;45.49;99066.56;4952596;28;102108;-81
2021/06/14 07:54:19;;;;;;;;;0.33;0.33;;;;;19.24;45.24;99064.41;4979940;27;103765;-81
2021/06/14 07:56:48;;;;;;;;;1.00;1.00;;;;;19.23;45.10;99059.97;4965225;28;102516;-80
2021/06/14 07:59:16;;;;;;;;;2.00;1.00;;;;;19.28;44.91;99067.47;4946284;28;101832;-81
2021/06/14 08:01:44;;;;;;;;;0.33;0.33;;;;;19.28;44.78;99065.56;4987793;28;102401;-80
2021/06/14 08:04:21;;;;;;;;;1.00;1.00;;;;;19.29;44.76;99064.50;4968686;28;104036;-81
2021/06/14 08:06:50;;;;;;;;;0.67;0.67;;;;;19.32;44.74;99064.00;4975225;28;102419;-81
2021/06/14 08:09:24;;;;;;;;;2.67;1.00;;;;;19.32;44.75;99058.50;4977959;28;102602;-80
2021/06/14 08:11:54;;;;;;;;;3.00;1.33;;;;;19.28;44.75;99057.34;4974403;28;102515;-81
2021/06/14 08:14:23;;;;;;;;;1.00;1.00;;;;;19.35;44.71;99058.03;4958077;28;102076;-80
2021/06/14 08:16:56;;;;;;;;;1.00;1.00;;;;;19.33;44.54;99051.13;4968167;28;102043;-81
2021/06/14 08:19:47;;;;;;;;;0.67;0.67;;;;;19.28;44.47;99040.03;4971970;28;102258;-81
2021/06/14 08:22:41;;;;;;;;;1.00;1.00;;;;;19.29;44.62;99037.06;4921595;28;102727;-81
2021/06/14 08:25:10;;;;;;;;;1.00;1.00;;;;;19.40;44.59;99051.81;4948730;28;108945;-80
2021/06/14 08:27:39;;;;;;;;;1.00;1.00;;;;;19.42;44.71;99052.38;4976606;28;102600;-81
2021/06/14 08:30:09;;;;;;;;;1.67;1.00;;;;;19.41;44.53;99057.03;4972695;28;101840;-81
2021/06/14 08:32:37;;;;;;;;;0.67;0.67;;;;;19.41;44.54;99059.78;4963739;28;102625;-81
2021/06/14 08:35:06;;;;;;;;;2.00;1.33;;;;;19.42;44.69;99058.69;4956660;28;104350;-82
2021/06/14 08:37:47;;;;;;;;;0.00;0.00;;;;;19.44;44.91;99056.59;4966071;28;102129;-81
2021/06/14 08:40:16;;;;;;;;;2.00;2.00;;;;;19.37;44.83;99047.63;4963800;28;102996;-81
2021/06/14 08:42:44;;;;;;;;;2.00;1.00;;;;;19.48;44.84;99068.72;4945474;28;102491;-81
2021/06/14 08:45:12;;;;;;;;;1.67;1.00;;;;;19.50;44.82;99066.53;4970220;28;103370;-81
2021/06/14 08:47:40;;;;;;;;;0.33;0.33;;;;;19.51;44.76;99061.91;4969743;28;103549;-80
2021/06/14 08:50:11;;;;;;;;;1.00;1.00;;;;;19.48;44.77;99056.91;4974990;28;101995;-80
2021/06/14 08:52:40;;;;;;;;;1.00;1.00;;;;;19.53;44.77;99066.06;4981734;27;103263;-81
2021/06/14 08:55:11;;;;;;;;;1.00;1.00;;;;;19.51;45.00;99056.41;4979731;28;103084;-81
2021/06/14 08:57:39;;;;;;;;;1.00;1.00;;;;;19.49;44.90;99050.34;4975112;28;102140;-81
2021/06/14 09:00:14;;;;;;;;;1.00;1.00;;;;;19.58;44.89;99066.16;4970377;28;102071;-81
2021/06/14 09:02:42;;;;;;;;;1.00;1.00;;;;;19.59;44.85;99058.75;4974845;27;101773;-81
2021/06/14 09:05:11;;;;;;;;;1.00;1.00;;;;;19.60;44.80;99064.00;4976311;28;104604;-81
2021/06/14 09:07:41;;;;;;;;;0.33;0.33;;;;;19.60;44.89;99058.50;4978365;27;102088;-81
2021/06/14 09:10:19;;;;;;;;;1.00;1.00;;;;;19.65;44.73;99073.38;4965155;28;102566;-81
2021/06/14 09:12:46;;;;;;;;;2.00;1.00;;;;;19.65;44.95;99067.91;4972515;28;102760;-82
2021/06/14 09:15:26;;;;;;;;;1.00;1.00;;;;;19.65;44.79;99071.47;4970260;28;104937;-80
2021/06/14 09:18:32;;;;;;;;;1.00;1.00;;;;;19.68;44.98;99078.41;4977594;28;102324;-81
2021/06/14 09:21:18;;;;;;;;;1.00;1.00;;;;;19.56;45.00;99043.63;4898548;28;103149;-81
2021/06/14 09:23:52;;;;;;;;;1.00;1.00;;;;;19.71;45.27;99058.69;4978991;27;102112;-81
2021/06/14 09:26:31;;;;;;;;;1.33;1.00;;;;;19.67;45.04;99052.88;4974472;28;103008;-81
2021/06/14 09:29:00;;;;;;;;;1.00;1.00;;;;;19.73;44.87;99062.00;4978922;28;102052;-81
2021/06/14 09:31:36;;;;;;;;;1.00;1.00;;;;;19.66;45.01;99033.91;4974852;27;101981;-80
2021/06/14 09:34:03;;;;;;;;;1.00;1.00;;;;;19.66;45.02;99047.63;4976970;28;101982;-81
2021/06/14 09:36:32;;;;;;;;;1.33;1.00;;;;;19.75;45.02;99057.94;4977977;28;107814;-80
2021/06/14 09:39:10;;;;;;;;;1.00;1.00;;;;;19.79;45.05;99061.00;4980566;27;102629;-81
2021/06/14 09:41:40;;;;;;;;;2.00;1.67;;;;;19.80;44.98;99048.97;4963543;28;101505;-81
2021/06/14 09:44:07;;;;;;;;;1.00;0.67;;;;;19.80;44.96;99047.06;4956759;28;101979;-81
2021/06/14 09:46:36;;;;;;;;;1.00;1.00;;;;;19.76;45.10;99056.03;4976384;28;103106;-81
2021/06/14 09:49:05;;;;;;;;;0.00;0.00;;;;;19.80;45.12;99043.47;4982579;28;102063;-81
2021/06/14 09:51:34;;;;;;;;;1.00;0.33;;;;;19.77;44.92;99041.22;4968642;28;103605;-81
2021/06/14 09:54:03;;;;;;;;;1.00;1.00;;;;;19.83;45.10;99040.22;4968028;28;102662;-81
2021/06/14 09:56:36;;;;;;;;;0.00;0.00;;;;;19.81;45.11;99034.16;4977191;28;108867;-80
2021/06/14 09:59:10;;;;;;;;;1.00;1.00;;;;;19.85;45.25;99041.66;4972971;28;102211;-80
2021/06/14 10:01:39;;;;;;;;;1.00;1.00;;;;;19.76;45.00;99029.41;4977481;28;101243;-81
2021/06/14 10:04:11;;;;;;;;;1.00;1.00;;;;;19.86;45.15;99032.31;4986846;27;102271;-81
2021/06/14 10:06:42;;;;;;;;;1.00;1.00;;;;;19.90;45.35;99036.22;4970884;28;106880;-81
2021/06/14 10:09:12;;;;;;;;;1.00;1.00;;;;;19.92;45.24;99038.72;4972105;28;104353;-81
2021/06/14 10:11:43;;;;;;;;;1.00;1.00;;;;;19.92;45.11;99031.31;4972853;27;102374;-81
2021/06/14 10:14:18;;;;;;;;;1.00;1.00;;;;;19.94;45.04;99017.34;4955280;28;102820;-80
2021/06/14 10:16:49;;;;;;;;;1.00;1.00;;;;;19.92;44.95;99019.50;4975850;28;104087;-81
2021/06/14 10:19:18;;;;;;;;;1.00;1.00;;;;;19.96;45.35;99021.50;4979564;28;103232;-81
2021/06/14 10:21:47;;;;;;;;;1.67;1.67;;;;;19.96;45.23;99021.50;4961087;28;102062;-81
2021/06/14 10:24:16;;;;;;;;;2.00;1.00;;;;;19.95;45.29;99024.47;4977838;28;104055;-82
2021/06/14 10:26:51;;;;;;;;;1.33;1.33;;;;;19.98;45.08;99024.00;4980679;28;104359;-81
2021/06/14 10:29:32;;;;;;;;;1.00;1.00;;;;;19.90;45.07;99011.50;4971429;28;102140;-81
2021/06/14 10:32:00;;;;;;;;;0.67;0.67;;;;;20.01;45.44;99015.25;4959128;28;102451;-81
2021/06/14 10:34:27;;;;;;;;;1.33;1.33;;;;;20.00;45.11;99013.56;4983820;28;103496;-80
2021/06/14 10:36:54;;;;;;;;;0.33;0.33;;;;;19.98;45.32;99008.38;4962915;28;104276;-81
2021/06/14 10:39:24;;;;;;;;;1.00;1.00;;;;;20.03;45.08;99013.09;4966667;28;102494;-82
2021/06/14 10:41:58;;;;;;;;;1.00;1.00;;;;;20.03;45.47;99004.84;4969363;28;101913;-81
2021/06/14 10:44:25;;;;;;;;;0.00;0.00;;;;;19.95;45.32;98986.88;4975103;28;102481;-80
2021/06/14 10:46:55;;;;;;;;;0.33;0.33;;;;;19.96;45.21;98998.69;4973517;28;104212;-79
2021/06/14 10:49:23;;;;;;;;;1.00;1.00;;;;;19.96;45.15;98993.22;4963747;28;101928;-81
2021/06/14 10:52:04;;;;;;;;;1.00;1.00;;;;;19.97;45.34;98989.38;4968672;28;102496;-80
2021/06/14 10:54:45;;;;;;;;;1.00;1.00;;;;;20.03;45.40;98982.91;4960417;28;102183;-81
2021/06/14 10:57:15;;;;;;;;;0.67;0.67;;;;;20.02;45.21;98987.56;4978522;28;103981;-81
2021/06/14 10:59:44;;;;;;;;;1.00;1.00;;;;;20.04;45.32;98990.88;4969530;28;103592;-81
2021/06/14 11:02:13;;;;;;;;;1.00;0.00;;;;;20.00;45.09;98984.22;4977384;28;102618;-81
2021/06/14 11:04:42;;;;;;;;;0.67;0.67;;;;;20.01;45.55;98979.56;4987725;28;102405;-80
2021/06/14 11:07:14;;;;;;;;;1.00;1.00;;;;;20.01;45.51;98974.06;4972602;28;109895;-81
2021/06/14 11:09:57;;;;;;;;;1.00;1.00;;;;;20.08;45.16;98996.69;4968440;28;102235;-80
2021/06/14 11:12:26;;;;;;;;;1.33;1.00;;;;;20.14;45.34;98998.41;4968159;27;101847;-81
2021/06/14 11:14:56;;;;;;;;;1.00;1.00;;;;;20.13;45.26;98994.00;4972492;28;102614;-80
2021/06/14 11:17:24;;;;;;;;;0.33;0.33;;;;;20.06;45.39;98976.88;4946715;28;103182;-81
2021/06/14 11:19:59;;;;;;;;;0.67;0.67;;;;;20.16;45.40;98979.78;4962118;28;102127;-82
2021/06/14 11:22:40;;;;;;;;;1.00;1.00;;;;;20.14;45.38;98972.88;4969170;28;102434;-81
2021/06/14 11:25:23;;;;;;;;;1.00;1.00;;;;;20.14;45.05;98973.69;4909957;28;102243;-80
2021/06/14 11:27:54;;;;;;;;;1.00;1.00;;;;;20.08;45.49;98950.03;4970070;28;103034;-81
2021/06/14 11:30:25;;;;;;;;;2.00;2.00;;;;;20.20;45.47;98969.13;4975834;28;101731;-81
2021/06/14 11:32:53;;;;;;;;;1.00;0.00;;;;;20.15;45.11;98955.31;4971506;28;102057;-80
2021/06/14 11:35:21;;;;;;;;;1.00;1.00;;;;;20.15;45.67;98952.56;4972834;28;102381;-80
2021/06/14 11:37:55;;;;;;;;;0.33;0.33;;;;;20.23;45.34;98960.38;4969822;28;104055;-81
2021/06/14 11:40:30;;;;;;;;;1.00;1.00;;;;;20.18;45.46;98947.41;4957085;28;101994;-80
2021/06/14 11:42:59;;;;;;;;;0.00;0.00;;;;;20.19;45.13;98960.03;4965866;28;102918;-80
2021/06/14 11:45:33;;;;;;;;;1.00;1.00;;;;;20.26;45.11;98959.88;4967678;28;102800;-81
2021/06/14 11:48:01;;;;;;;;;0.67;0.67;;;;;20.26;45.22;98957.94;4959058;28;103490;-81
2021/06/14 11:50:31;;;;;;;;;1.00;1.00;;;;;20.26;45.58;98957.94;4972375;28;102182;-81
2021/06/14 11:53:06;;;;;;;;;0.67;0.67;;;;;20.26;45.01;98952.44;4967822;28;103133;-81